Indianapolis, Indiana
Traffic Map
Current Weather Conditions
Indianapolis, Indiana
Clear
Clear
60°
Feels Like: 60°
Wind Chill: 60° Ceiling: Unl
Heat Index: 60° Visibility: 10mi
Dew Point: 54° Wind: 6mph
Humidity: 80% Direction: 270° (W)
Pressure: 29.93in Gusts: 0mph
Raw Report DataKIND 300554Z 27005KT 10SM CLR 16/12 A2993 RMK AO2 SLP129 T01560122 10233 20150 56004
Traffic Incident Summary
Active as of:
Severity:
Category:
InformationThere was an issue retrieving the traffic information for this location. Please try a different location or try again shortly.
Advertisements
Track Severe Weather on mobile